Terminal Aerodrome Forecast
Issued by NWS Duluth, MN

Home | Current Version | Previous Version | Text Only | Print | Product List | Glossary On
Versions: 1 2 3 4 5 6 7 8 9 10 11 12 13 14 15 16 17 18 19 20
893
FTUS43 KDLH 270719 AAA
TAFINL
TAF AMD
KINL 270719Z 2707/2806 03008KT P6SM OVC020
     FM271300 01008KT P6SM VCSH OVC015
     FM271400 36008KT P6SM OVC010
     FM271700 35009KT P6SM VCSH OVC015
     FM280000 33008KT P6SM OVC015=

USA.gov is the U.S. government's official web portal to all federal, state and local government web resources and services.